createdAt,value
2022-09-29T00:00:20.099Z,944.86
2022-09-29T00:01:20.078Z,944.82
2022-09-29T00:02:23.099Z,944.85
2022-09-29T00:03:20.169Z,944.78
2022-09-29T00:04:20.082Z,944.85
2022-09-29T00:05:20.041Z,944.82
2022-09-29T00:06:20.068Z,944.83
2022-09-29T00:07:20.023Z,944.85
2022-09-29T00:08:20.020Z,944.80
2022-09-29T00:09:20.206Z,944.85
2022-09-29T00:10:19.988Z,944.84
2022-09-29T00:11:19.970Z,944.83
2022-09-29T00:12:19.963Z,944.87
2022-09-29T00:13:19.954Z,944.85
2022-09-29T00:14:20.041Z,944.86
2022-09-29T00:15:19.934Z,944.88
2022-09-29T00:16:19.976Z,944.87
2022-09-29T00:17:22.931Z,944.85
2022-09-29T00:18:19.925Z,944.90
2022-09-29T00:19:19.881Z,944.89
2022-09-29T00:20:19.884Z,944.92
2022-09-29T00:21:19.912Z,944.88
2022-09-29T00:22:19.892Z,944.85
2022-09-29T00:23:19.856Z,944.85
2022-09-29T00:24:19.929Z,944.83
2022-09-29T00:25:19.826Z,944.86
2022-09-29T00:26:19.825Z,944.83
2022-09-29T00:27:19.816Z,944.80
2022-09-29T00:28:19.794Z,944.88
2022-09-29T00:29:19.797Z,944.81
2022-09-29T00:30:19.777Z,944.78
2022-09-29T00:31:19.838Z,944.80
2022-09-29T00:32:22.755Z,944.82
2022-09-29T00:33:19.758Z,944.82
2022-09-29T00:34:19.864Z,944.78
2022-09-29T00:35:19.725Z,944.81
2022-09-29T00:36:19.706Z,944.72
2022-09-29T00:37:19.708Z,944.74
2022-09-29T00:38:19.697Z,944.69
2022-09-29T00:39:19.689Z,944.73
2022-09-29T00:40:19.733Z,944.74
2022-09-29T00:41:19.719Z,944.77
2022-09-29T00:42:19.656Z,944.74
2022-09-29T00:43:19.637Z,944.77
2022-09-29T00:44:19.686Z,944.73
2022-09-29T00:45:19.621Z,944.72
2022-09-29T00:46:19.608Z,944.72
2022-09-29T00:47:22.598Z,944.76
2022-09-29T00:48:19.608Z,944.73
2022-09-29T00:49:19.578Z,944.72
2022-09-29T00:50:19.572Z,944.74
2022-09-29T00:51:19.552Z,944.68
2022-09-29T00:52:19.658Z,944.70
2022-09-29T00:53:21.761Z,944.67
2022-09-29T00:54:19.585Z,944.69
2022-09-29T00:55:19.512Z,944.62
2022-09-29T00:56:19.511Z,944.62
2022-09-29T00:57:19.500Z,944.59
2022-09-29T00:58:19.488Z,944.60
2022-09-29T00:59:19.473Z,944.58
2022-09-29T01:00:19.464Z,944.53
2022-09-29T01:01:19.496Z,944.52
2022-09-29T01:02:22.494Z,944.51
2022-09-29T01:03:19.453Z,944.52
2022-09-29T01:04:19.511Z,944.46
2022-09-29T01:05:19.415Z,944.47
2022-09-29T01:06:19.404Z,944.48
2022-09-29T01:07:19.392Z,944.41
2022-09-29T01:08:19.413Z,944.42
2022-09-29T01:09:19.379Z,944.39
2022-09-29T01:10:19.355Z,944.44
2022-09-29T01:11:19.354Z,944.44
2022-09-29T01:12:19.341Z,944.46
2022-09-29T01:13:19.328Z,944.52
2022-09-29T01:14:19.416Z,944.47
2022-09-29T01:15:19.318Z,944.54
2022-09-29T01:16:19.322Z,944.53
2022-09-29T01:17:22.293Z,944.46
2022-09-29T01:18:19.295Z,944.44
2022-09-29T01:19:19.415Z,944.43
2022-09-29T01:20:19.264Z,944.39
2022-09-29T01:21:19.288Z,944.36
2022-09-29T01:22:19.239Z,944.34
2022-09-29T01:23:19.245Z,944.34
2022-09-29T01:24:19.329Z,944.38
2022-09-29T01:25:19.207Z,944.39
2022-09-29T01:26:19.201Z,944.37
2022-09-29T01:27:19.188Z,944.36
2022-09-29T01:28:19.177Z,944.34
2022-09-29T01:29:19.188Z,944.38
2022-09-29T01:30:19.156Z,944.38
2022-09-29T01:31:19.179Z,944.40
2022-09-29T01:32:22.141Z,944.41
2022-09-29T01:33:19.139Z,944.44
2022-09-29T01:34:19.296Z,944.37
2022-09-29T01:35:19.110Z,944.35
2022-09-29T01:36:19.092Z,944.38
2022-09-29T01:37:19.085Z,944.40
2022-09-29T01:38:19.104Z,944.39
2022-09-29T01:39:19.051Z,944.40
2022-09-29T01:40:19.086Z,944.42
2022-09-29T01:41:19.038Z,944.43
2022-09-29T01:42:19.023Z,944.44
2022-09-29T01:43:19.022Z,944.44
2022-09-29T01:44:19.150Z,944.42
2022-09-29T01:45:19.002Z,944.41
2022-09-29T01:46:19.037Z,944.44
2022-09-29T01:47:21.979Z,944.43
2022-09-29T01:48:18.984Z,944.41
2022-09-29T01:49:18.974Z,944.44
2022-09-29T01:50:18.948Z,944.46
2022-09-29T01:51:18.933Z,944.48
2022-09-29T01:52:18.925Z,944.46
2022-09-29T01:53:18.914Z,944.46
2022-09-29T01:54:19.035Z,944.48
2022-09-29T01:55:18.895Z,944.50
2022-09-29T01:56:18.879Z,944.48
2022-09-29T01:57:18.875Z,944.43
2022-09-29T01:58:18.862Z,944.40
2022-09-29T01:59:18.856Z,944.35
2022-09-29T02:00:18.946Z,944.39
2022-09-29T02:01:18.872Z,944.37
2022-09-29T02:02:21.861Z,944.33
2022-09-29T02:03:18.827Z,944.34
2022-09-29T02:04:18.878Z,944.34
2022-09-29T02:05:18.831Z,944.38
2022-09-29T02:06:18.790Z,944.41
2022-09-29T02:07:18.778Z,944.46
2022-09-29T02:08:18.765Z,944.46
2022-09-29T02:09:18.754Z,944.45
2022-09-29T02:10:18.749Z,944.44
2022-09-29T02:11:18.727Z,944.37
2022-09-29T02:12:18.717Z,944.40
2022-09-29T02:13:18.701Z,944.37
2022-09-29T02:14:18.766Z,944.42
2022-09-29T02:15:18.687Z,944.39
2022-09-29T02:16:18.724Z,944.39
2022-09-29T02:17:21.672Z,944.40
2022-09-29T02:18:18.705Z,944.39
2022-09-29T02:19:18.758Z,944.31
2022-09-29T02:20:18.639Z,944.31
2022-09-29T02:21:18.760Z,944.30
2022-09-29T02:22:18.610Z,944.32
2022-09-29T02:23:18.641Z,944.31
2022-09-29T02:24:18.709Z,944.26
2022-09-29T02:25:18.623Z,944.29
2022-09-29T02:26:18.629Z,944.27
2022-09-29T02:27:18.600Z,944.29
2022-09-29T02:28:18.574Z,944.29
2022-09-29T02:29:18.602Z,944.29
2022-09-29T02:30:18.585Z,944.29
2022-09-29T02:31:18.559Z,944.32
2022-09-29T02:32:21.541Z,944.29
2022-09-29T02:33:18.513Z,944.31
2022-09-29T02:34:18.599Z,944.32
2022-09-29T02:35:18.490Z,944.35
2022-09-29T02:36:18.471Z,944.35
2022-09-29T02:37:18.462Z,944.36
2022-09-29T02:38:18.451Z,944.36
2022-09-29T02:39:18.445Z,944.32
2022-09-29T02:40:18.508Z,944.33
2022-09-29T02:41:18.435Z,944.27
2022-09-29T02:42:18.416Z,944.32
2022-09-29T02:43:18.425Z,944.28
2022-09-29T02:44:18.430Z,944.26
2022-09-29T02:45:18.376Z,944.25
2022-09-29T02:46:18.364Z,944.26
2022-09-29T02:47:21.355Z,944.23
2022-09-29T02:48:18.356Z,944.23
2022-09-29T02:49:18.326Z,944.21
2022-09-29T02:50:18.324Z,944.21
2022-09-29T02:51:18.316Z,944.22
2022-09-29T02:52:18.306Z,944.20
2022-09-29T02:53:18.298Z,944.25
2022-09-29T02:54:18.533Z,944.18
2022-09-29T02:55:18.278Z,944.16
2022-09-29T02:56:18.256Z,944.16
2022-09-29T02:57:18.245Z,944.14
2022-09-29T02:58:18.271Z,944.10
2022-09-29T02:59:18.237Z,944.12
2022-09-29T03:00:18.226Z,944.16
2022-09-29T03:01:18.244Z,944.14
2022-09-29T03:02:21.198Z,944.10
2022-09-29T03:03:18.343Z,944.14
2022-09-29T03:04:18.229Z,944.13
2022-09-29T03:05:18.172Z,944.14
2022-09-29T03:06:18.158Z,944.14
2022-09-29T03:07:18.161Z,944.12
2022-09-29T03:08:18.176Z,944.10
2022-09-29T03:09:18.130Z,944.14
2022-09-29T03:10:18.119Z,944.11
2022-09-29T03:11:18.109Z,944.12
2022-09-29T03:12:18.101Z,944.12
2022-09-29T03:13:18.090Z,944.03
2022-09-29T03:14:18.081Z,944.07
2022-09-29T03:15:18.073Z,944.07
2022-09-29T03:16:18.096Z,944.05
2022-09-29T03:17:21.051Z,944.07
2022-09-29T03:18:18.047Z,944.01
2022-09-29T03:19:18.153Z,944.00
2022-09-29T03:20:18.021Z,944.02
2022-09-29T03:21:18.009Z,944.03
2022-09-29T03:22:17.992Z,944.01
2022-09-29T03:23:17.987Z,944.02
2022-09-29T03:24:18.035Z,944.06
2022-09-29T03:25:17.965Z,944.01
2022-09-29T03:26:17.945Z,944.03
2022-09-29T03:27:17.939Z,944.00
2022-09-29T03:28:17.923Z,944.00
2022-09-29T03:29:17.983Z,943.97
2022-09-29T03:30:17.921Z,943.98
2022-09-29T03:31:17.973Z,944.01
2022-09-29T03:32:20.895Z,943.95
2022-09-29T03:33:17.895Z,943.96
2022-09-29T03:34:17.900Z,943.93
2022-09-29T03:35:17.857Z,943.95
2022-09-29T03:36:17.854Z,943.95
2022-09-29T03:37:17.835Z,943.95
2022-09-29T03:38:17.827Z,943.97
2022-09-29T03:39:17.938Z,943.95
2022-09-29T03:40:17.873Z,943.98
2022-09-29T03:41:17.799Z,943.97
2022-09-29T03:42:17.798Z,943.92
2022-09-29T03:43:17.775Z,943.93
2022-09-29T03:44:17.771Z,943.91
2022-09-29T03:45:17.779Z,943.90
2022-09-29T03:46:17.745Z,943.89
2022-09-29T03:47:20.740Z,943.91
2022-09-29T03:48:20.600Z,943.87
2022-09-29T03:49:17.752Z,943.88
2022-09-29T03:50:17.729Z,943.86
2022-09-29T03:51:17.690Z,943.87
2022-09-29T03:52:17.687Z,943.87
2022-09-29T03:53:17.669Z,943.89
2022-09-29T03:54:17.690Z,943.85
2022-09-29T03:55:17.649Z,943.91
2022-09-29T03:56:17.648Z,943.87
2022-09-29T03:57:17.629Z,943.88
2022-09-29T03:58:17.617Z,943.90
2022-09-29T03:59:17.764Z,943.90
2022-09-29T04:00:17.600Z,943.89
2022-09-29T04:01:17.633Z,943.93
2022-09-29T04:02:20.609Z,943.94
2022-09-29T04:03:17.589Z,943.97
2022-09-29T04:04:17.552Z,943.94
2022-09-29T04:05:17.563Z,943.98
2022-09-29T04:06:17.540Z,944.01
2022-09-29T04:07:17.541Z,943.95
2022-09-29T04:08:17.521Z,944.01
2022-09-29T04:09:17.502Z,943.98
2022-09-29T04:10:17.602Z,944.00
2022-09-29T04:11:17.483Z,943.98
2022-09-29T04:12:17.476Z,943.98
2022-09-29T04:13:20.057Z,943.99
2022-09-29T04:14:17.453Z,943.98
2022-09-29T04:15:17.450Z,944.02
2022-09-29T04:16:17.454Z,943.99
2022-09-29T04:17:20.435Z,944.00
2022-09-29T04:18:17.438Z,944.01
2022-09-29T04:19:17.452Z,943.97
2022-09-29T04:20:17.434Z,944.04
2022-09-29T04:21:17.427Z,944.01
2022-09-29T04:22:17.382Z,944.01
2022-09-29T04:23:17.356Z,944.03
2022-09-29T04:24:17.349Z,944.03
2022-09-29T04:25:17.375Z,944.06
2022-09-29T04:26:17.329Z,944.03
2022-09-29T04:27:17.323Z,944.05
2022-09-29T04:28:17.305Z,944.10
2022-09-29T04:29:17.472Z,944.13
2022-09-29T04:30:17.294Z,944.11
2022-09-29T04:31:17.347Z,944.13
2022-09-29T04:32:20.266Z,944.10
2022-09-29T04:33:17.289Z,944.12
2022-09-29T04:34:19.109Z,944.10
2022-09-29T04:35:17.238Z,944.15
2022-09-29T04:36:17.234Z,944.12
2022-09-29T04:37:17.219Z,944.10
2022-09-29T04:38:17.249Z,944.12
2022-09-29T04:39:17.246Z,944.13
2022-09-29T04:40:17.252Z,944.15
2022-09-29T04:41:17.179Z,944.15
2022-09-29T04:42:17.160Z,944.15
2022-09-29T04:43:17.278Z,944.15
2022-09-29T04:44:17.150Z,944.15
2022-09-29T04:45:17.143Z,944.17
2022-09-29T04:46:17.159Z,944.18
2022-09-29T04:47:20.122Z,944.18
2022-09-29T04:48:17.122Z,944.16
2022-09-29T04:49:17.140Z,944.17
2022-09-29T04:50:17.091Z,944.19
2022-09-29T04:51:17.086Z,944.15
2022-09-29T04:52:17.072Z,944.21
2022-09-29T04:53:17.048Z,944.22
2022-09-29T04:54:17.188Z,944.21
2022-09-29T04:55:16.992Z,944.19
2022-09-29T04:56:17.027Z,944.22
2022-09-29T04:57:17.013Z,944.23
2022-09-29T04:58:17.004Z,944.23
2022-09-29T04:59:17.012Z,944.25
2022-09-29T05:00:16.964Z,944.24
2022-09-29T05:01:16.977Z,944.25
2022-09-29T05:02:20.058Z,944.24
2022-09-29T05:03:16.913Z,944.24
2022-09-29T05:04:16.916Z,944.23
2022-09-29T05:05:16.878Z,944.26
2022-09-29T05:06:16.865Z,944.26
2022-09-29T05:07:16.856Z,944.27
2022-09-29T05:08:16.943Z,944.25
2022-09-29T05:09:16.851Z,944.27
2022-09-29T05:10:16.826Z,944.25
2022-09-29T05:11:16.815Z,944.25
2022-09-29T05:12:16.809Z,944.23
2022-09-29T05:13:16.786Z,944.23
2022-09-29T05:14:16.776Z,944.26
2022-09-29T05:15:16.779Z,944.28
2022-09-29T05:16:16.825Z,944.25
2022-09-29T05:17:19.756Z,944.28
2022-09-29T05:18:16.758Z,944.33
2022-09-29T05:19:16.963Z,944.29
2022-09-29T05:20:16.717Z,944.29
2022-09-29T05:21:27.582Z,944.33
2022-09-29T05:22:16.699Z,944.32
2022-09-29T05:23:16.687Z,944.30
2022-09-29T05:24:16.679Z,944.32
2022-09-29T05:25:16.673Z,944.34
2022-09-29T05:26:16.657Z,944.34
2022-09-29T05:27:16.678Z,944.35
2022-09-29T05:28:16.639Z,944.33
2022-09-29T05:29:16.684Z,944.35
2022-09-29T05:30:16.621Z,944.33
2022-09-29T05:31:16.650Z,944.30
2022-09-29T05:32:19.794Z,944.33
2022-09-29T05:33:16.601Z,944.38
2022-09-29T05:34:16.571Z,944.36
2022-09-29T05:35:16.562Z,944.39
2022-09-29T05:36:16.556Z,944.38
2022-09-29T05:37:16.546Z,944.38
2022-09-29T05:38:16.572Z,944.39
2022-09-29T05:39:16.563Z,944.34
2022-09-29T05:40:16.512Z,944.36
2022-09-29T05:41:16.492Z,944.36
2022-09-29T05:42:16.486Z,944.38
2022-09-29T05:43:16.484Z,944.39
2022-09-29T05:44:16.472Z,944.37
2022-09-29T05:45:16.453Z,944.40
2022-09-29T05:46:16.519Z,944.39
2022-09-29T05:47:19.435Z,944.43
2022-09-29T05:48:16.433Z,944.40
2022-09-29T05:49:16.451Z,944.46
2022-09-29T05:50:16.410Z,944.42
2022-09-29T05:51:19.459Z,944.41
2022-09-29T05:52:16.376Z,944.42
2022-09-29T05:53:16.377Z,944.42
2022-09-29T05:54:16.356Z,944.43
2022-09-29T05:55:16.354Z,944.43
2022-09-29T05:56:16.335Z,944.45
2022-09-29T05:57:16.322Z,944.47
2022-09-29T05:58:16.314Z,944.49
2022-09-29T05:59:16.381Z,944.49
2022-09-29T06:00:16.476Z,944.48
2022-09-29T06:01:16.451Z,944.44
2022-09-29T06:02:19.310Z,944.48
2022-09-29T06:03:16.288Z,944.46
2022-09-29T06:04:16.258Z,944.46
2022-09-29T06:05:16.249Z,944.46
2022-09-29T06:06:16.237Z,944.50
2022-09-29T06:07:16.227Z,944.52
2022-09-29T06:08:16.217Z,944.50
2022-09-29T06:09:16.231Z,944.51
2022-09-29T06:10:16.202Z,944.51
2022-09-29T06:11:16.201Z,944.53
2022-09-29T06:12:21.037Z,944.50
2022-09-29T06:13:16.360Z,944.54
2022-09-29T06:14:16.154Z,944.52
2022-09-29T06:15:16.145Z,944.52
2022-09-29T06:16:16.213Z,944.54
2022-09-29T06:17:19.130Z,944.50
2022-09-29T06:18:16.133Z,944.49
2022-09-29T06:19:16.142Z,944.51
2022-09-29T06:20:16.092Z,944.49
2022-09-29T06:21:16.078Z,944.50
2022-09-29T06:22:16.081Z,944.53
2022-09-29T06:23:16.060Z,944.54
2022-09-29T06:24:16.100Z,944.54
2022-09-29T06:25:16.042Z,944.55
2022-09-29T06:26:20.113Z,944.57
2022-09-29T06:27:16.020Z,944.55
2022-09-29T06:28:16.018Z,944.54
2022-09-29T06:29:16.077Z,944.51
2022-09-29T06:30:15.984Z,944.54
2022-09-29T06:31:15.987Z,944.54
2022-09-29T06:32:18.982Z,944.56
2022-09-29T06:33:15.983Z,944.55
2022-09-29T06:34:15.951Z,944.54
2022-09-29T06:35:15.974Z,944.56
2022-09-29T06:36:15.935Z,944.56
2022-09-29T06:37:15.909Z,944.58
2022-09-29T06:38:15.913Z,944.55
2022-09-29T06:39:16.010Z,944.54
2022-09-29T06:40:15.965Z,944.55
2022-09-29T06:41:15.875Z,944.49
2022-09-29T06:42:15.857Z,944.52
2022-09-29T06:43:15.844Z,944.50
2022-09-29T06:44:15.846Z,944.49
2022-09-29T06:45:18.222Z,944.49
2022-09-29T06:46:15.894Z,944.51
2022-09-29T06:47:18.807Z,944.50
2022-09-29T06:48:15.864Z,944.52
2022-09-29T06:49:15.840Z,944.50
2022-09-29T06:50:15.787Z,944.51
2022-09-29T06:51:15.776Z,944.53
2022-09-29T06:52:20.959Z,944.51
2022-09-29T06:53:15.771Z,944.56
2022-09-29T06:54:16.738Z,944.53
2022-09-29T06:55:15.739Z,944.54
2022-09-29T06:56:15.735Z,944.57
2022-09-29T06:57:15.704Z,944.52
2022-09-29T06:58:15.701Z,944.54
2022-09-29T06:59:15.754Z,944.55
2022-09-29T07:00:15.668Z,944.53
2022-09-29T07:01:15.768Z,944.58
2022-09-29T07:02:18.716Z,944.57
2022-09-29T07:03:15.658Z,944.59
2022-09-29T07:04:15.664Z,944.58
2022-09-29T07:05:15.622Z,944.53
2022-09-29T07:06:19.602Z,944.54
2022-09-29T07:07:15.599Z,944.55
2022-09-29T07:08:15.590Z,944.56
2022-09-29T07:09:15.731Z,944.56
2022-09-29T07:10:15.570Z,944.58
2022-09-29T07:11:15.596Z,944.58
2022-09-29T07:12:15.544Z,944.57
2022-09-29T07:13:15.546Z,944.60
2022-09-29T07:14:15.590Z,944.61
2022-09-29T07:15:15.525Z,944.63
2022-09-29T07:16:15.544Z,944.63
2022-09-29T07:17:18.493Z,944.65
2022-09-29T07:18:15.607Z,944.67
2022-09-29T07:19:15.541Z,944.67
2022-09-29T07:20:15.464Z,944.67
2022-09-29T07:21:15.455Z,944.68
2022-09-29T07:22:15.443Z,944.72
2022-09-29T07:23:15.478Z,944.71
2022-09-29T07:24:15.414Z,944.77
2022-09-29T07:25:23.188Z,944.74
2022-09-29T07:26:16.599Z,944.73
2022-09-29T07:27:15.393Z,944.76
2022-09-29T07:28:15.384Z,944.74
2022-09-29T07:29:16.134Z,944.76
2022-09-29T07:30:15.361Z,944.76
2022-09-29T07:31:16.066Z,944.77
2022-09-29T07:32:26.943Z,944.80
2022-09-29T07:33:15.411Z,944.77
2022-09-29T07:34:16.347Z,944.79
2022-09-29T07:35:15.327Z,944.81
2022-09-29T07:36:15.296Z,944.81
2022-09-29T07:37:15.289Z,944.84
2022-09-29T07:38:15.270Z,944.82
2022-09-29T07:39:15.301Z,944.85
2022-09-29T07:40:15.267Z,944.84
2022-09-29T07:41:15.249Z,944.84
2022-09-29T07:42:15.236Z,944.84
2022-09-29T07:43:15.230Z,944.80
2022-09-29T07:44:15.261Z,944.84
2022-09-29T07:45:15.385Z,944.88
2022-09-29T07:46:15.291Z,944.87
2022-09-29T07:47:18.181Z,944.90
2022-09-29T07:48:15.185Z,944.86
2022-09-29T07:49:15.231Z,944.90
2022-09-29T07:50:15.149Z,944.91
2022-09-29T07:51:15.146Z,944.89
2022-09-29T07:52:15.130Z,944.93
2022-09-29T07:53:15.122Z,944.99
2022-09-29T07:54:15.115Z,944.94
2022-09-29T07:55:15.115Z,944.99
2022-09-29T07:56:15.121Z,944.99
2022-09-29T07:57:15.084Z,945.04
2022-09-29T07:58:15.071Z,945.06
2022-09-29T07:59:15.099Z,945.04
2022-09-29T08:00:15.044Z,945.01
2022-09-29T08:01:15.062Z,945.00
2022-09-29T08:02:18.050Z,945.02
2022-09-29T08:03:15.045Z,945.07
2022-09-29T08:04:15.045Z,945.07
2022-09-29T08:05:15.000Z,945.02
2022-09-29T08:06:14.995Z,945.05
2022-09-29T08:07:15.003Z,945.07
2022-09-29T08:08:14.965Z,945.05
2022-09-29T08:09:14.965Z,945.05
2022-09-29T08:10:17.591Z,945.07
2022-09-29T08:11:27.161Z,945.03
2022-09-29T08:12:15.963Z,945.04
2022-09-29T08:13:14.915Z,945.08
2022-09-29T08:14:14.940Z,945.07
2022-09-29T08:15:14.897Z,945.10
2022-09-29T08:16:14.962Z,945.11
2022-09-29T08:17:17.869Z,945.12
2022-09-29T08:18:14.879Z,945.09
2022-09-29T08:19:14.915Z,945.13
2022-09-29T08:20:14.850Z,945.16
2022-09-29T08:21:14.868Z,945.11
2022-09-29T08:22:14.818Z,945.09
2022-09-29T08:23:14.806Z,945.14
2022-09-29T08:24:14.854Z,945.16
2022-09-29T08:25:14.789Z,945.16
2022-09-29T08:26:14.779Z,945.19
2022-09-29T08:27:19.107Z,945.18
2022-09-29T08:28:26.182Z,945.23
2022-09-29T08:29:17.730Z,945.23
2022-09-29T08:30:14.729Z,945.21
2022-09-29T08:31:14.764Z,945.23
2022-09-29T08:32:17.711Z,945.23
2022-09-29T08:33:14.768Z,945.26
2022-09-29T08:34:14.875Z,945.28
2022-09-29T08:35:14.690Z,945.26
2022-09-29T08:36:14.746Z,945.32
2022-09-29T08:37:14.669Z,945.30
2022-09-29T08:38:14.662Z,945.34
2022-09-29T08:39:14.880Z,945.31
2022-09-29T08:40:14.649Z,945.38
2022-09-29T08:41:14.643Z,945.35
2022-09-29T08:42:14.673Z,945.37
2022-09-29T08:43:19.623Z,945.40
2022-09-29T08:44:30.681Z,945.40
2022-09-29T08:45:16.728Z,945.37
2022-09-29T08:46:15.636Z,945.39
2022-09-29T08:47:18.795Z,945.40
2022-09-29T08:48:22.899Z,945.48
2022-09-29T08:49:23.789Z,945.39
2022-09-29T08:50:15.531Z,945.42
2022-09-29T08:51:14.524Z,945.38
2022-09-29T08:52:17.129Z,945.42
2022-09-29T08:53:25.581Z,945.42
2022-09-29T08:54:14.495Z,945.46
2022-09-29T08:55:21.025Z,945.46
2022-09-29T08:56:14.477Z,945.47
2022-09-29T08:57:14.455Z,945.48
2022-09-29T08:58:14.447Z,945.53
2022-09-29T08:59:14.445Z,945.52
2022-09-29T09:00:14.437Z,945.55
2022-09-29T09:01:14.471Z,945.54
2022-09-29T09:02:17.494Z,945.58
2022-09-29T09:03:14.411Z,945.59
2022-09-29T09:04:14.390Z,945.56
2022-09-29T09:05:14.372Z,945.60
2022-09-29T09:06:14.461Z,945.62
2022-09-29T09:07:14.366Z,945.60
2022-09-29T09:08:14.372Z,945.56
2022-09-29T09:09:14.374Z,945.53
2022-09-29T09:10:14.331Z,945.53
2022-09-29T09:11:14.309Z,945.55
2022-09-29T09:12:14.313Z,945.59
2022-09-29T09:13:14.297Z,945.63
2022-09-29T09:14:14.276Z,945.62
2022-09-29T09:15:14.271Z,945.61
2022-09-29T09:16:14.286Z,945.61
2022-09-29T09:17:17.384Z,945.66
2022-09-29T09:18:14.251Z,945.70
2022-09-29T09:19:14.230Z,945.71
2022-09-29T09:20:14.250Z,945.69
2022-09-29T09:21:14.201Z,945.66
2022-09-29T09:22:14.192Z,945.67
2022-09-29T09:23:14.292Z,945.67
2022-09-29T09:24:14.172Z,945.69
2022-09-29T09:25:14.163Z,945.71
2022-09-29T09:26:14.159Z,945.71
2022-09-29T09:27:14.144Z,945.70
2022-09-29T09:28:14.173Z,945.73
2022-09-29T09:29:14.119Z,945.68
2022-09-29T09:30:14.238Z,945.66
2022-09-29T09:31:14.160Z,945.70
2022-09-29T09:32:17.084Z,945.68
2022-09-29T09:33:23.174Z,945.71
2022-09-29T09:34:15.077Z,945.76
2022-09-29T09:35:23.204Z,945.71
2022-09-29T09:36:17.479Z,945.72
2022-09-29T09:37:15.052Z,945.72
2022-09-29T09:38:14.026Z,945.74
2022-09-29T09:39:14.055Z,945.75
2022-09-29T09:40:14.071Z,945.73
2022-09-29T09:41:13.996Z,945.72
2022-09-29T09:42:13.998Z,945.71
2022-09-29T09:43:13.978Z,945.71
2022-09-29T09:44:14.101Z,945.69
2022-09-29T09:45:13.957Z,945.68
2022-09-29T09:46:14.004Z,945.69
2022-09-29T09:47:16.938Z,945.72
2022-09-29T09:48:13.950Z,945.69
2022-09-29T09:49:13.950Z,945.70
2022-09-29T09:50:13.936Z,945.70
2022-09-29T09:51:13.909Z,945.66
2022-09-29T09:53:15.319Z,945.73
2022-09-29T09:54:14.022Z,945.69
2022-09-29T09:55:13.861Z,945.69
2022-09-29T09:56:13.839Z,945.72
2022-09-29T09:57:13.828Z,945.69
2022-09-29T09:58:13.842Z,945.70
2022-09-29T09:59:13.813Z,945.71
2022-09-29T10:00:13.812Z,945.70
2022-09-29T10:01:13.850Z,945.72
2022-09-29T10:02:16.838Z,945.70
2022-09-29T10:03:13.791Z,945.65
2022-09-29T10:04:13.779Z,945.71
2022-09-29T10:05:13.827Z,945.73
2022-09-29T10:06:13.742Z,945.73
2022-09-29T10:07:13.723Z,945.69
2022-09-29T10:08:13.726Z,945.73
2022-09-29T10:09:13.858Z,945.75
2022-09-29T10:10:13.708Z,945.74
2022-09-29T10:11:13.683Z,945.71
2022-09-29T10:12:13.678Z,945.71
2022-09-29T10:13:13.685Z,945.74
2022-09-29T10:14:13.676Z,945.76
2022-09-29T10:15:13.646Z,945.76
2022-09-29T10:16:13.830Z,945.75
2022-09-29T10:17:16.626Z,945.72
2022-09-29T10:18:13.637Z,945.73
2022-09-29T10:19:13.606Z,945.70
2022-09-29T10:20:13.595Z,945.69
2022-09-29T10:21:13.642Z,945.68
2022-09-29T10:22:13.633Z,945.66
2022-09-29T10:23:13.567Z,945.70
2022-09-29T10:24:13.553Z,945.69
2022-09-29T10:25:13.644Z,945.71
2022-09-29T10:26:13.530Z,945.72
2022-09-29T10:27:13.519Z,945.73
2022-09-29T10:28:13.556Z,945.70
2022-09-29T10:29:13.495Z,945.75
2022-09-29T10:30:13.500Z,945.72
2022-09-29T10:31:13.556Z,945.76
2022-09-29T10:32:16.600Z,945.77
2022-09-29T10:33:13.479Z,945.78
2022-09-29T10:34:13.476Z,945.79
2022-09-29T10:35:13.620Z,945.79
2022-09-29T10:36:13.430Z,945.82
2022-09-29T10:37:13.424Z,945.79
2022-09-29T10:38:13.409Z,945.83
2022-09-29T10:39:13.404Z,945.81
2022-09-29T10:40:13.442Z,945.80
2022-09-29T10:41:13.379Z,945.79
2022-09-29T10:42:13.370Z,945.81
2022-09-29T10:43:13.363Z,945.82
2022-09-29T10:44:13.352Z,945.82
2022-09-29T10:45:13.339Z,945.83
2022-09-29T10:46:13.357Z,945.80
2022-09-29T10:47:16.320Z,945.82
2022-09-29T10:48:13.343Z,945.85
2022-09-29T10:49:13.336Z,945.83
2022-09-29T10:50:13.296Z,945.85
2022-09-29T10:51:13.278Z,945.84
2022-09-29T10:52:13.286Z,945.86
2022-09-29T10:53:13.267Z,945.84
2022-09-29T10:54:13.274Z,945.84
2022-09-29T10:55:13.247Z,945.85
2022-09-29T10:56:13.214Z,945.83
2022-09-29T10:57:13.306Z,945.79
2022-09-29T10:58:13.203Z,945.83
2022-09-29T10:59:14.194Z,945.86
2022-09-29T11:00:13.219Z,945.83
2022-09-29T11:01:13.197Z,945.83
2022-09-29T11:02:16.212Z,945.88
2022-09-29T11:03:13.169Z,945.85
2022-09-29T11:04:13.189Z,945.84
2022-09-29T11:05:13.177Z,945.82
2022-09-29T11:06:13.130Z,945.86
2022-09-29T11:07:13.111Z,945.86
2022-09-29T11:08:13.099Z,945.86
2022-09-29T11:09:13.214Z,945.88
2022-09-29T11:10:13.087Z,945.89
2022-09-29T11:11:13.067Z,945.94
2022-09-29T11:12:13.224Z,945.89
2022-09-29T11:13:13.049Z,945.91
2022-09-29T11:14:13.030Z,945.93
2022-09-29T11:15:13.021Z,945.92
2022-09-29T11:16:13.094Z,945.93
2022-09-29T11:17:16.003Z,945.91
2022-09-29T11:18:13.017Z,945.94
2022-09-29T11:19:13.024Z,946.01
2022-09-29T11:20:12.982Z,945.93
2022-09-29T11:21:12.961Z,945.98
2022-09-29T11:22:12.950Z,945.96
2022-09-29T11:23:12.942Z,945.98
2022-09-29T11:24:12.923Z,945.99
2022-09-29T11:25:12.913Z,945.95
2022-09-29T11:26:12.903Z,945.96
2022-09-29T11:27:12.995Z,945.94
2022-09-29T11:28:12.897Z,945.97
2022-09-29T11:29:12.913Z,945.99
2022-09-29T11:30:12.866Z,945.93
2022-09-29T11:31:12.855Z,946.00
2022-09-29T11:32:15.889Z,945.98
2022-09-29T11:33:12.849Z,945.98
2022-09-29T11:34:12.827Z,946.00
2022-09-29T11:35:12.805Z,945.97
2022-09-29T11:36:12.827Z,946.01
2022-09-29T11:37:12.790Z,945.99
2022-09-29T11:38:12.787Z,945.94
2022-09-29T11:39:12.821Z,945.96
2022-09-29T11:40:12.767Z,945.98
2022-09-29T11:41:12.755Z,945.97
2022-09-29T11:42:12.746Z,945.99
2022-09-29T11:43:12.845Z,945.97
2022-09-29T11:44:12.750Z,945.97
2022-09-29T11:45:12.785Z,945.97
2022-09-29T11:46:12.723Z,946.00
2022-09-29T11:47:15.690Z,945.96
2022-09-29T11:48:12.700Z,945.96
2022-09-29T11:49:12.776Z,945.98
2022-09-29T11:50:12.666Z,945.96
2022-09-29T11:51:12.642Z,945.99
2022-09-29T11:52:12.840Z,945.96
2022-09-29T11:53:12.662Z,945.97
2022-09-29T11:54:12.610Z,945.96
2022-09-29T11:55:12.611Z,945.98
2022-09-29T11:56:12.596Z,945.93
2022-09-29T11:57:16.225Z,946.00
2022-09-29T11:58:12.582Z,945.94
2022-09-29T11:59:12.631Z,945.99
2022-09-29T12:00:12.559Z,945.91
2022-09-29T12:01:12.532Z,945.93
2022-09-29T12:02:15.619Z,945.89
2022-09-29T12:03:12.629Z,945.91
2022-09-29T12:04:12.542Z,945.94
2022-09-29T12:05:12.507Z,945.91
2022-09-29T12:06:12.486Z,945.89
2022-09-29T12:07:12.483Z,945.85
2022-09-29T12:08:12.479Z,945.88
2022-09-29T12:09:12.602Z,945.86
2022-09-29T12:10:12.445Z,945.87
2022-09-29T12:11:37.659Z,945.86
2022-09-29T12:12:28.833Z,945.78
2022-09-29T12:13:12.424Z,945.82
2022-09-29T12:14:12.472Z,945.81
2022-09-29T12:15:12.500Z,945.81
2022-09-29T12:16:12.389Z,945.78
2022-09-29T12:17:19.338Z,945.76
2022-09-29T12:18:12.385Z,945.78
2022-09-29T12:19:12.368Z,945.79
2022-09-29T12:20:12.338Z,945.73
2022-09-29T12:21:15.553Z,945.70
2022-09-29T12:22:12.329Z,945.72
2022-09-29T12:24:12.311Z,945.68
2022-09-29T12:25:12.301Z,945.71
2022-09-29T12:26:12.292Z,945.70
2022-09-29T12:27:12.281Z,945.66
2022-09-29T12:28:12.262Z,945.68
2022-09-29T12:29:12.260Z,945.65
2022-09-29T12:30:12.245Z,945.64